sensor_id;sensor_type;location;lat;lon;timestamp;pressure;altitude;pressure_sealevel;temperature;humidity
35888;BME280;21990;42.540;23.496;2023-01-27T15:26:07;92525.72;;;0.20;98.47
35888;BME280;21990;42.540;23.496;2023-01-27T15:28:37;92531.22;;;0.15;98.86
35888;BME280;21990;42.540;23.496;2023-01-27T15:41:35;92543.16;;;0.00;99.69
35888;BME280;21990;42.540;23.496;2023-01-27T15:44:15;92550.00;;;0.05;99.58
35888;BME280;21990;42.540;23.496;2023-01-27T15:46:49;92544.22;;;0.03;99.39
35888;BME280;21990;42.540;23.496;2023-01-27T15:49:26;92546.47;;;0.05;99.36
35888;BME280;21990;42.540;23.496;2023-01-27T15:52:08;92548.78;;;0.06;99.64
35888;BME280;21990;42.540;23.496;2023-01-27T15:54:39;92550.19;;;-0.04;99.94
35888;BME280;21990;42.540;23.496;2023-01-27T15:57:05;92558.53;;;0.02;99.57
35888;BME280;21990;42.540;23.496;2023-01-27T15:59:47;92560.84;;;0.03;99.49
35888;BME280;21990;42.540;23.496;2023-01-27T16:02:19;92565.31;;;0.00;99.21
35888;BME280;21990;42.540;23.496;2023-01-27T16:05:13;92573.41;;;0.04;99.45
35888;BME280;21990;42.540;23.496;2023-01-27T16:07:40;92573.22;;;0.08;99.17
35888;BME280;21990;42.540;23.496;2023-01-27T16:10:16;92577.25;;;0.12;99.03
35888;BME280;21990;42.540;23.496;2023-01-27T16:12:43;92573.69;;;0.06;99.37
35888;BME280;21990;42.540;23.496;2023-01-27T16:15:31;92580.78;;;0.13;99.24
35888;BME280;21990;42.540;23.496;2023-01-27T16:18:21;92582.78;;;0.12;99.18
35888;BME280;21990;42.540;23.496;2023-01-27T16:21:03;92585.97;;;-0.01;99.11
35888;BME280;21990;42.540;23.496;2023-01-27T16:29:02;92582.69;;;0.01;98.89
35888;BME280;21990;42.540;23.496;2023-01-27T16:31:30;92588.53;;;0.03;99.29
35888;BME280;21990;42.540;23.496;2023-01-27T16:33:59;92583.22;;;-0.01;99.07
35888;BME280;21990;42.540;23.496;2023-01-27T16:36:30;92591.56;;;0.05;99.04
35888;BME280;21990;42.540;23.496;2023-01-27T16:39:02;92590.84;;;0.10;98.62
35888;BME280;21990;42.540;23.496;2023-01-27T16:41:32;92586.06;;;0.11;98.77
35888;BME280;21990;42.540;23.496;2023-01-27T16:44:12;92599.41;;;0.12;98.69
35888;BME280;21990;42.540;23.496;2023-01-27T16:46:49;92581.31;;;0.11;98.31
35888;BME280;21990;42.540;23.496;2023-01-27T16:49:22;92585.78;;;0.09;98.90
35888;BME280;21990;42.540;23.496;2023-01-27T16:51:59;92589.06;;;0.07;98.75
35888;BME280;21990;42.540;23.496;2023-01-27T16:54:44;92587.75;;;0.03;98.56
35888;BME280;21990;42.540;23.496;2023-01-27T16:57:34;92590.56;;;0.08;98.44
35888;BME280;21990;42.540;23.496;2023-01-27T17:00:06;92588.03;;;0.05;98.58
35888;BME280;21990;42.540;23.496;2023-01-27T17:02:33;92595.78;;;0.00;99.04
35888;BME280;21990;42.540;23.496;2023-01-27T17:05:03;92595.31;;;0.02;99.03
35888;BME280;21990;42.540;23.496;2023-01-27T17:07:30;92592.28;;;0.00;98.81
35888;BME280;21990;42.540;23.496;2023-01-27T17:10:06;92604.59;;;-0.01;98.85
35888;BME280;21990;42.540;23.496;2023-01-27T17:12:42;92599.06;;;-0.01;98.71
35888;BME280;21990;42.540;23.496;2023-01-27T17:15:25;92608.06;;;-0.06;99.04
35888;BME280;21990;42.540;23.496;2023-01-27T17:17:55;92608.28;;;-0.10;99.08
35888;BME280;21990;42.540;23.496;2023-01-27T17:20:25;92610.84;;;-0.06;99.20
35888;BME280;21990;42.540;23.496;2023-01-27T17:22:53;92614.59;;;-0.09;99.45
35888;BME280;21990;42.540;23.496;2023-01-27T17:25:35;92611.06;;;-0.10;99.27
35888;BME280;21990;42.540;23.496;2023-01-27T17:28:12;92608.81;;;-0.06;98.82
35888;BME280;21990;42.540;23.496;2023-01-27T17:30:43;92617.59;;;-0.07;99.13
35888;BME280;21990;42.540;23.496;2023-01-27T17:33:17;92623.91;;;-0.07;99.05
35888;BME280;21990;42.540;23.496;2023-01-27T17:35:49;92625.91;;;-0.07;98.93
35888;BME280;21990;42.540;23.496;2023-01-27T17:38:32;92624.25;;;0.01;98.63
35888;BME280;21990;42.540;23.496;2023-01-27T17:40:59;92619.69;;;-0.02;98.51
35888;BME280;21990;42.540;23.496;2023-01-27T17:43:33;92627.50;;;-0.01;98.54
35888;BME280;21990;42.540;23.496;2023-01-27T17:48:40;92626.97;;;-0.05;98.25
35888;BME280;21990;42.540;23.496;2023-01-27T17:51:09;92633.13;;;-0.15;98.68
35888;BME280;21990;42.540;23.496;2023-01-27T17:53:39;92632.72;;;-0.08;98.57
35888;BME280;21990;42.540;23.496;2023-01-27T17:56:30;92637.00;;;-0.07;98.59
35888;BME280;21990;42.540;23.496;2023-01-27T17:59:14;92637.75;;;-0.07;98.58
35888;BME280;21990;42.540;23.496;2023-01-27T18:01:44;92638.72;;;-0.10;98.87
35888;BME280;21990;42.540;23.496;2023-01-27T18:04:10;92645.03;;;-0.09;98.66
35888;BME280;21990;42.540;23.496;2023-01-27T18:06:37;92640.53;;;-0.07;98.84
35888;BME280;21990;42.540;23.496;2023-01-27T18:09:25;92649.88;;;-0.04;99.15
35888;BME280;21990;42.540;23.496;2023-01-27T18:12:03;92642.81;;;-0.05;98.69
35888;BME280;21990;42.540;23.496;2023-01-27T18:14:33;92644.28;;;-0.10;98.42
35888;BME280;21990;42.540;23.496;2023-01-27T18:17:01;92644.53;;;-0.08;98.92
35888;BME280;21990;42.540;23.496;2023-01-27T18:19:27;92647.31;;;-0.08;99.14
35888;BME280;21990;42.540;23.496;2023-01-27T18:22:09;92655.59;;;-0.08;98.73
35888;BME280;21990;42.540;23.496;2023-01-27T18:24:36;92644.81;;;-0.06;99.30
35888;BME280;21990;42.540;23.496;2023-01-27T18:27:02;92643.84;;;-0.03;99.53
35888;BME280;21990;42.540;23.496;2023-01-27T18:29:35;92651.66;;;-0.01;98.77
35888;BME280;21990;42.540;23.496;2023-01-27T18:32:17;92658.44;;;-0.02;99.21
35888;BME280;21990;42.540;23.496;2023-01-27T18:34:46;92664.53;;;0.02;98.73
35888;BME280;21990;42.540;23.496;2023-01-27T18:37:32;92673.53;;;-0.03;98.53
35888;BME280;21990;42.540;23.496;2023-01-27T18:40:00;92664.75;;;-0.02;98.14
35888;BME280;21990;42.540;23.496;2023-01-27T18:42:29;92662.47;;;-0.03;98.22
35888;BME280;21990;42.540;23.496;2023-01-27T18:44:55;92672.78;;;-0.04;98.54
35888;BME280;21990;42.540;23.496;2023-01-27T18:47:32;92663.38;;;-0.12;98.29
35888;BME280;21990;42.540;23.496;2023-01-27T18:50:03;92665.44;;;-0.07;98.11
35888;BME280;21990;42.540;23.496;2023-01-27T18:52:35;92670.22;;;-0.07;98.17
35888;BME280;21990;42.540;23.496;2023-01-27T18:55:18;92663.88;;;-0.13;98.20
35888;BME280;21990;42.540;23.496;2023-01-27T18:57:45;92669.41;;;-0.13;98.47
35888;BME280;21990;42.540;23.496;2023-01-27T19:00:14;92675.91;;;-0.16;98.67
35888;BME280;21990;42.540;23.496;2023-01-27T19:02:45;92671.34;;;-0.19;98.34
35888;BME280;21990;42.540;23.496;2023-01-27T19:05:18;92671.50;;;-0.28;98.74
35888;BME280;21990;42.540;23.496;2023-01-27T19:07:45;92668.00;;;-0.23;98.92
35888;BME280;21990;42.540;23.496;2023-01-27T19:10:21;92666.50;;;-0.24;98.94
35888;BME280;21990;42.540;23.496;2023-01-27T19:12:53;92673.06;;;-0.22;98.67
35888;BME280;21990;42.540;23.496;2023-01-27T19:15:20;92671.97;;;-0.30;98.80
35888;BME280;21990;42.540;23.496;2023-01-27T19:17:52;92672.31;;;-0.22;98.71
35888;BME280;21990;42.540;23.496;2023-01-27T19:20:21;92677.38;;;-0.21;98.95
35888;BME280;21990;42.540;23.496;2023-01-27T19:22:48;92680.34;;;-0.24;98.72
35888;BME280;21990;42.540;23.496;2023-01-27T19:25:14;92679.78;;;-0.28;98.86
35888;BME280;21990;42.540;23.496;2023-01-27T19:27:45;92679.28;;;-0.27;98.86
35888;BME280;21990;42.540;23.496;2023-01-27T19:32:43;92687.59;;;-0.27;98.97
35888;BME280;21990;42.540;23.496;2023-01-27T19:35:09;92687.38;;;-0.23;98.60
35888;BME280;21990;42.540;23.496;2023-01-27T19:37:34;92693.69;;;-0.23;98.52
35888;BME280;21990;42.540;23.496;2023-01-27T19:40:00;92696.19;;;-0.25;99.00
35888;BME280;21990;42.540;23.496;2023-01-27T19:42:26;92686.56;;;-0.29;98.69
35888;BME280;21990;42.540;23.496;2023-01-27T19:44:52;92691.63;;;-0.28;98.74
35888;BME280;21990;42.540;23.496;2023-01-27T19:47:17;92691.63;;;-0.28;98.79
35888;BME280;21990;42.540;23.496;2023-01-27T19:49:43;92693.44;;;-0.25;98.55
35888;BME280;21990;42.540;23.496;2023-01-27T19:52:08;92694.44;;;-0.22;98.41
35888;BME280;21990;42.540;23.496;2023-01-27T19:54:34;92691.69;;;-0.22;98.45
35888;BME280;21990;42.540;23.496;2023-01-27T19:57:00;92693.13;;;-0.27;98.67
35888;BME280;21990;42.540;23.496;2023-01-27T19:59:25;92692.41;;;-0.27;98.36
35888;BME280;21990;42.540;23.496;2023-01-27T20:01:52;92691.13;;;-0.26;98.55
35888;BME280;21990;42.540;23.496;2023-01-27T20:04:18;92692.41;;;-0.27;98.68
35888;BME280;21990;42.540;23.496;2023-01-27T20:06:43;92697.56;;;-0.35;98.97
35888;BME280;21990;42.540;23.496;2023-01-27T20:09:09;92694.75;;;-0.40;99.27
35888;BME280;21990;42.540;23.496;2023-01-27T20:11:40;92691.28;;;-0.35;99.12
35888;BME280;21990;42.540;23.496;2023-01-27T20:14:15;92696.06;;;-0.36;99.30
35888;BME280;21990;42.540;23.496;2023-01-27T20:16:43;92688.22;;;-0.37;99.39
35888;BME280;21990;42.540;23.496;2023-01-27T20:19:09;92697.78;;;-0.38;99.18
35888;BME280;21990;42.540;23.496;2023-01-27T20:21:37;92698.88;;;-0.30;98.81
35888;BME280;21990;42.540;23.496;2023-01-27T20:24:03;92699.09;;;-0.34;98.83
35888;BME280;21990;42.540;23.496;2023-01-27T20:26:28;92704.91;;;-0.32;98.98
35888;BME280;21990;42.540;23.496;2023-01-27T20:28:55;92705.69;;;-0.31;98.81
35888;BME280;21990;42.540;23.496;2023-01-27T20:31:21;92708.09;;;-0.39;98.59
35888;BME280;21990;42.540;23.496;2023-01-27T20:33:47;92703.88;;;-0.34;98.67
35888;BME280;21990;42.540;23.496;2023-01-27T20:36:20;92709.41;;;-0.34;98.69
35888;BME280;21990;42.540;23.496;2023-01-27T20:38:46;92710.16;;;-0.34;98.83
35888;BME280;21990;42.540;23.496;2023-01-27T20:41:15;92727.31;;;-0.30;98.97
35888;BME280;21990;42.540;23.496;2023-01-27T20:43:41;92723.03;;;-0.31;98.35
35888;BME280;21990;42.540;23.496;2023-01-27T20:46:12;92723.31;;;-0.29;98.08
35888;BME280;21990;42.540;23.496;2023-01-27T20:48:38;92729.31;;;-0.30;98.47
35888;BME280;21990;42.540;23.496;2023-01-27T20:51:06;92734.19;;;-0.25;98.26
35888;BME280;21990;42.540;23.496;2023-01-27T20:53:34;92735.63;;;-0.30;98.45
35888;BME280;21990;42.540;23.496;2023-01-27T20:56:04;92731.88;;;-0.27;98.34
35888;BME280;21990;42.540;23.496;2023-01-27T20:58:30;92734.19;;;-0.25;98.27
35888;BME280;21990;42.540;23.496;2023-01-27T21:01:22;92735.16;;;-0.28;97.90
35888;BME280;21990;42.540;23.496;2023-01-27T21:03:48;92739.16;;;-0.29;98.23
35888;BME280;21990;42.540;23.496;2023-01-27T21:06:15;92730.09;;;-0.30;98.08
35888;BME280;21990;42.540;23.496;2023-01-27T21:08:42;92741.66;;;-0.31;98.42
35888;BME280;21990;42.540;23.496;2023-01-27T21:11:08;92734.09;;;-0.31;98.01
35888;BME280;21990;42.540;23.496;2023-01-27T21:13:35;92740.69;;;-0.28;97.82
35888;BME280;21990;42.540;23.496;2023-01-27T21:16:01;92737.16;;;-0.29;97.75
35888;BME280;21990;42.540;23.496;2023-01-27T21:18:27;92747.56;;;-0.24;98.02
35888;BME280;21990;42.540;23.496;2023-01-27T21:20:54;92745.25;;;-0.25;97.69
35888;BME280;21990;42.540;23.496;2023-01-27T21:23:24;92751.25;;;-0.27;97.96
35888;BME280;21990;42.540;23.496;2023-01-27T21:25:52;92758.63;;;-0.24;98.13
35888;BME280;21990;42.540;23.496;2023-01-27T21:28:19;92753.88;;;-0.38;98.58
35888;BME280;21990;42.540;23.496;2023-01-27T21:30:45;92757.16;;;-0.39;98.75
35888;BME280;21990;42.540;23.496;2023-01-27T21:33:11;92760.88;;;-0.42;98.65
35888;BME280;21990;42.540;23.496;2023-01-27T21:35:37;92762.47;;;-0.36;99.19
35888;BME280;21990;42.540;23.496;2023-01-27T21:38:03;92748.91;;;-0.34;98.92
35888;BME280;21990;42.540;23.496;2023-01-27T21:40:28;92746.66;;;-0.35;98.65
35888;BME280;21990;42.540;23.496;2023-01-27T21:43:14;92748.91;;;-0.34;99.13
35888;BME280;21990;42.540;23.496;2023-01-27T21:45:58;92754.84;;;-0.41;98.97
35888;BME280;21990;42.540;23.496;2023-01-27T21:48:25;92758.38;;;-0.40;99.29
35888;BME280;21990;42.540;23.496;2023-01-27T21:50:50;92761.06;;;-0.46;99.76
35888;BME280;21990;42.540;23.496;2023-01-27T21:53:16;92764.34;;;-0.47;99.55
35888;BME280;21990;42.540;23.496;2023-01-27T21:55:42;92770.13;;;-0.45;99.73
35888;BME280;21990;42.540;23.496;2023-01-27T21:58:07;92784.81;;;-0.39;99.47
35888;BME280;21990;42.540;23.496;2023-01-27T22:00:44;92773.00;;;-0.40;99.07
35888;BME280;21990;42.540;23.496;2023-01-27T22:03:13;92767.94;;;-0.41;98.83
35888;BME280;21990;42.540;23.496;2023-01-27T22:05:38;92774.44;;;-0.44;99.38
35888;BME280;21990;42.540;23.496;2023-01-27T22:08:04;92776.53;;;-0.39;99.32
35888;BME280;21990;42.540;23.496;2023-01-27T22:10:31;92772.28;;;-0.35;98.99
35888;BME280;21990;42.540;23.496;2023-01-27T22:12:58;92775.56;;;-0.36;99.13
35888;BME280;21990;42.540;23.496;2023-01-27T22:15:24;92774.22;;;-0.41;98.77
35888;BME280;21990;42.540;23.496;2023-01-27T22:17:53;92775.19;;;-0.44;99.01
35888;BME280;21990;42.540;23.496;2023-01-27T22:20:19;92774.13;;;-0.47;99.18
35888;BME280;21990;42.540;23.496;2023-01-27T22:22:45;92781.19;;;-0.45;99.02
35888;BME280;21990;42.540;23.496;2023-01-27T22:25:13;92780.22;;;-0.42;99.17
35888;BME280;21990;42.540;23.496;2023-01-27T22:27:40;92775.47;;;-0.42;99.02
35888;BME280;21990;42.540;23.496;2023-01-27T22:30:08;92778.72;;;-0.43;98.97
35888;BME280;21990;42.540;23.496;2023-01-27T22:32:34;92767.47;;;-0.40;99.16
35888;BME280;21990;42.540;23.496;2023-01-27T22:34:59;92778.53;;;-0.40;99.26
35888;BME280;21990;42.540;23.496;2023-01-27T22:37:25;92764.34;;;-0.47;99.28
35888;BME280;21990;42.540;23.496;2023-01-27T22:39:50;92776.72;;;-0.43;99.23
35888;BME280;21990;42.540;23.496;2023-01-27T22:42:16;92775.25;;;-0.38;98.96
35888;BME280;21990;42.540;23.496;2023-01-27T22:44:42;92779.00;;;-0.41;99.11
35888;BME280;21990;42.540;23.496;2023-01-27T22:47:07;92778.78;;;-0.38;98.96
35888;BME280;21990;42.540;23.496;2023-01-27T22:49:33;92780.53;;;-0.40;98.94
35888;BME280;21990;42.540;23.496;2023-01-27T22:51:58;92784.72;;;-0.45;99.11
35888;BME280;21990;42.540;23.496;2023-01-27T22:54:24;92788.84;;;-0.40;99.01
35888;BME280;21990;42.540;23.496;2023-01-27T22:56:50;92782.72;;;-0.44;98.77
35888;BME280;21990;42.540;23.496;2023-01-27T22:59:16;92777.47;;;-0.42;99.40
35888;BME280;21990;42.540;23.496;2023-01-27T23:01:41;92780.59;;;-0.35;98.96
35888;BME280;21990;42.540;23.496;2023-01-27T23:04:09;92784.81;;;-0.39;98.66
35888;BME280;21990;42.540;23.496;2023-01-27T23:06:38;92782.81;;;-0.39;98.63
35888;BME280;21990;42.540;23.496;2023-01-27T23:09:30;92784.06;;;-0.40;98.39
35888;BME280;21990;42.540;23.496;2023-01-27T23:12:20;92786.34;;;-0.38;98.58
35888;BME280;21990;42.540;23.496;2023-01-27T23:14:45;92782.53;;;-0.41;98.82
35888;BME280;21990;42.540;23.496;2023-01-27T23:17:11;92778.53;;;-0.40;98.69
35888;BME280;21990;42.540;23.496;2023-01-27T23:19:36;92779.28;;;-0.39;98.86
35888;BME280;21990;42.540;23.496;2023-01-27T23:22:02;92770.22;;;-0.40;98.60
35888;BME280;21990;42.540;23.496;2023-01-27T23:24:27;92776.53;;;-0.39;98.41
35888;BME280;21990;42.540;23.496;2023-01-27T23:26:53;92774.78;;;-0.37;98.74
35888;BME280;21990;42.540;23.496;2023-01-27T23:29:18;92779.00;;;-0.41;98.49
35888;BME280;21990;42.540;23.496;2023-01-27T23:31:45;92778.22;;;-0.42;98.46
35888;BME280;21990;42.540;23.496;2023-01-27T23:34:11;92782.53;;;-0.41;98.45
35888;BME280;21990;42.540;23.496;2023-01-27T23:36:36;92778.53;;;-0.40;98.48
35888;BME280;21990;42.540;23.496;2023-01-27T23:39:02;92778.72;;;-0.43;98.34
35888;BME280;21990;42.540;23.496;2023-01-27T23:41:28;92779.56;;;-0.37;98.39
35888;BME280;21990;42.540;23.496;2023-01-27T23:43:54;92786.53;;;-0.42;98.27
35888;BME280;21990;42.540;23.496;2023-01-27T23:46:23;92789.72;;;-0.49;98.83
35888;BME280;21990;42.540;23.496;2023-01-27T23:48:53;92779.09;;;-0.51;98.61
35888;BME280;21990;42.540;23.496;2023-01-27T23:51:20;92786.47;;;-0.47;98.54
35888;BME280;21990;42.540;23.496;2023-01-27T23:53:47;92794.84;;;-0.42;98.43
35888;BME280;21990;42.540;23.496;2023-01-27T23:56:14;92788.34;;;-0.39;97.77
35888;BME280;21990;42.540;23.496;2023-01-27T23:58:41;92797.34;;;-0.44;97.85
